Time;durP1;ratioP1;P1;durP2;ratioP2;P2;SDS_P1;SDS_P2;PMS_P1;PMS_P2;Temp;Humidity;BMP_temperature;BMP_pressure;BME280_temperature;BME280_humidity;BME280_pressure;Samples;Min_cycle;Max_cycle;Signal;HPM_P1;HPM_P2
2022/07/21 00:02:03;;;;;;;;;;;;;;;23.88;36.16;100790.31;5093142;28;19923;-73
2022/07/21 00:04:29;;;;;;;;;;;;;;;23.88;36.10;100788.38;5097916;28;20386;-73
2022/07/21 00:06:54;;;;;;;;;;;;;;;23.89;36.17;100791.97;5097770;28;19916;-73
2022/07/21 00:09:19;;;;;;;;;;;;;;;23.85;36.18;100797.09;5097833;28;20334;-73
2022/07/21 00:11:44;;;;;;;;;;;;;;;23.86;36.11;100796.03;5097797;28;20003;-73
2022/07/21 00:14:10;;;;;;;;;;;;;;;23.87;35.87;100789.50;5097812;28;20316;-72
2022/07/21 00:16:36;;;;;;;;;;;;;;;23.85;36.09;100791.66;5097791;28;20350;-72
2022/07/21 00:19:01;;;;;;;;;;;;;;;23.84;35.98;100792.75;5097732;28;20269;-72
2022/07/21 00:21:27;;;;;;;;;;;;;;;23.85;35.88;100791.66;5097323;28;19996;-72
2022/07/21 00:23:52;;;;;;;;;;;;;;;23.85;36.12;100799.03;5097033;28;19924;-72
2022/07/21 00:26:17;;;;;;;;;;;;;;;23.85;35.91;100796.28;5097320;28;20011;-72
2022/07/21 00:28:43;;;;;;;;;;;;;;;23.85;35.66;100801.75;5097330;28;19916;-72
2022/07/21 00:31:08;;;;;;;;;;;;;;;23.84;36.05;100800.13;5097589;28;19927;-72
2022/07/21 00:33:33;;;;;;;;;;;;;;;23.83;35.92;100795.75;5097206;28;19975;-72
2022/07/21 00:35:58;;;;;;;;;;;;;;;23.84;35.66;100794.66;5097501;28;19920;-72
2022/07/21 00:38:24;;;;;;;;;;;;;;;23.83;35.87;100801.19;5097547;28;20491;-72
2022/07/21 00:40:49;;;;;;;;;;;;;;;23.83;35.76;100790.28;5097331;28;19923;-72
2022/07/21 00:43:14;;;;;;;;;;;;;;;23.80;35.85;100789.72;5097292;28;19916;-72
2022/07/21 00:45:40;;;;;;;;;;;;;;;23.80;35.80;100789.72;5097563;28;20006;-72
2022/07/21 00:48:05;;;;;;;;;;;;;;;23.79;35.73;100796.25;5097731;28;19939;-72
2022/07/21 00:50:30;;;;;;;;;;;;;;;23.80;35.66;100791.59;5097479;28;20392;-72
2022/07/21 00:52:55;;;;;;;;;;;;;;;23.79;35.88;100793.50;5096085;28;20003;-72
2022/07/21 00:55:21;;;;;;;;;;;;;;;23.81;35.85;100796.81;5097604;28;20026;-72
2022/07/21 00:57:47;;;;;;;;;;;;;;;23.81;35.63;100802.28;5096148;28;19920;-72
2022/07/21 01:00:13;;;;;;;;;;;;;;;23.81;35.62;100794.09;5097168;28;20401;-72
2022/07/21 01:02:39;;;;;;;;;;;;;;;23.81;35.62;100798.75;5078372;28;19921;-72
2022/07/21 01:05:05;;;;;;;;;;;;;;;23.81;35.56;100802.28;5077937;28;20277;-72
2022/07/21 01:07:30;;;;;;;;;;;;;;;23.80;35.45;100800.63;5077691;28;20350;-72
2022/07/21 01:09:55;;;;;;;;;;;;;;;23.80;35.53;100806.09;5076881;28;19969;-72
2022/07/21 01:12:21;;;;;;;;;;;;;;;23.79;35.54;100798.97;5079064;28;19920;-72
2022/07/21 01:14:46;;;;;;;;;;;;;;;23.79;35.73;100803.63;5077766;28;20019;-72
2022/07/21 01:17:11;;;;;;;;;;;;;;;23.79;35.64;100809.88;5074975;28;19938;-72
2022/07/21 01:19:37;;;;;;;;;;;;;;;23.78;35.44;100797.34;5074720;28;19916;-73
2022/07/21 01:22:02;;;;;;;;;;;;;;;23.79;35.46;100798.97;5076248;28;19916;-72
2022/07/21 01:24:28;;;;;;;;;;;;;;;23.78;35.66;100802.81;5074516;28;20299;-72
2022/07/21 01:26:53;;;;;;;;;;;;;;;23.79;35.52;100793.50;5076057;28;20015;-72
2022/07/21 01:29:18;;;;;;;;;;;;;;;23.77;35.58;100792.16;5076038;28;20325;-72
2022/07/21 01:31:44;;;;;;;;;;;;;;;23.79;35.57;100787.25;5075986;28;19935;-72
2022/07/21 01:34:09;;;;;;;;;;;;;;;23.79;35.31;100795.44;5075905;28;19962;-72
2022/07/21 01:36:35;;;;;;;;;;;;;;;23.77;35.53;100792.97;5075869;28;19960;-72
2022/07/21 01:41:44;;;;;;;;;;;;;;;23.75;35.31;100802.47;5075861;28;19927;-72
2022/07/21 01:44:10;;;;;;;;;;;;;;;23.75;35.47;100791.56;5075455;28;20298;-72
2022/07/21 01:46:40;;;;;;;;;;;;;;;23.75;35.49;100792.41;5075320;28;19920;-73
2022/07/21 01:49:05;;;;;;;;;;;;;;;23.75;35.39;100781.50;5075361;28;20390;-73
2022/07/21 01:51:30;;;;;;;;;;;;;;;23.76;35.53;100776.84;5075235;28;19921;-73
2022/07/21 01:53:56;;;;;;;;;;;;;;;23.77;35.20;100789.41;5075785;28;19924;-72
2022/07/21 01:56:22;;;;;;;;;;;;;;;23.76;35.26;100790.50;5075490;28;20026;-72
2022/07/21 01:58:47;;;;;;;;;;;;;;;23.77;35.31;100781.22;5075166;28;20279;-72
2022/07/21 02:01:14;;;;;;;;;;;;;;;23.74;35.26;100785.31;5081707;28;20003;-72
2022/07/21 02:03:39;;;;;;;;;;;;;;;23.75;35.39;100786.97;5094104;28;19920;-72
2022/07/21 02:06:05;;;;;;;;;;;;;;;23.75;35.29;100794.31;5095156;28;19923;-73
2022/07/21 02:08:30;;;;;;;;;;;;;;;23.74;35.50;100798.13;5095160;28;19956;-73
2022/07/21 02:10:56;;;;;;;;;;;;;;;23.75;35.18;100797.88;5095376;28;19923;-72
2022/07/21 02:13:21;;;;;;;;;;;;;;;23.76;35.29;100804.13;5095371;28;19938;-72
2022/07/21 02:15:46;;;;;;;;;;;;;;;23.77;35.09;100803.88;5095023;28;19916;-72
2022/07/21 02:18:11;;;;;;;;;;;;;;;23.76;35.14;100799.50;5095306;28;19916;-73
2022/07/21 02:20:37;;;;;;;;;;;;;;;23.73;35.34;100802.78;5094906;28;19939;-73
2022/07/21 02:23:02;;;;;;;;;;;;;;;23.74;35.42;100801.69;5094914;28;20015;-72
2022/07/21 02:25:27;;;;;;;;;;;;;;;23.74;35.28;100807.13;5094655;28;19971;-72
2022/07/21 02:27:53;;;;;;;;;;;;;;;23.73;35.25;100805.50;5094807;28;19968;-73
2022/07/21 02:30:18;;;;;;;;;;;;;;;23.73;35.33;100800.06;5095115;28;19920;-73
2022/07/21 02:32:43;;;;;;;;;;;;;;;23.74;35.36;100804.41;5094728;28;19977;-72
2022/07/21 02:35:09;;;;;;;;;;;;;;;23.72;35.49;100803.03;5094961;28;19920;-72
2022/07/21 02:37:34;;;;;;;;;;;;;;;23.72;35.42;100809.31;5094912;28;19916;-72
2022/07/21 02:39:59;;;;;;;;;;;;;;;23.74;35.33;100800.88;5094854;28;19969;-72
2022/07/21 02:42:24;;;;;;;;;;;;;;;23.72;35.41;100803.84;5094807;28;20021;-72
2022/07/21 02:44:50;;;;;;;;;;;;;;;23.72;35.54;100800.31;5094797;28;20312;-72
2022/07/21 02:47:15;;;;;;;;;;;;;;;23.72;35.44;100809.31;5094347;28;19934;-72
2022/07/21 02:49:40;;;;;;;;;;;;;;;23.72;35.70;100805.78;5094747;28;19923;-72
2022/07/21 02:52:05;;;;;;;;;;;;;;;23.72;35.57;100803.03;5094680;28;19951;-72
2022/07/21 02:54:31;;;;;;;;;;;;;;;23.73;35.53;100808.25;5094607;28;20346;-72
2022/07/21 02:56:56;;;;;;;;;;;;;;;23.72;35.54;100803.03;5094268;28;19916;-72
2022/07/21 02:59:21;;;;;;;;;;;;;;;23.72;35.70;100798.41;5094514;28;19981;-72
2022/07/21 03:01:47;;;;;;;;;;;;;;;23.72;35.75;100806.59;5084126;28;19916;-72
2022/07/21 03:04:12;;;;;;;;;;;;;;;23.72;35.73;100803.84;5074650;28;20096;-72
2022/07/21 03:06:37;;;;;;;;;;;;;;;23.73;35.54;100800.06;5074108;28;20003;-73
2022/07/21 03:09:03;;;;;;;;;;;;;;;23.73;35.66;100812.84;5073831;28;20382;-72
2022/07/21 03:11:28;;;;;;;;;;;;;;;23.73;35.71;100812.84;5074175;28;19920;-72
2022/07/21 03:13:53;;;;;;;;;;;;;;;23.72;35.76;100809.31;5074061;28;20389;-72
2022/07/21 03:16:19;;;;;;;;;;;;;;;23.71;35.78;100807.66;5073794;28;19974;-71
2022/07/21 03:18:44;;;;;;;;;;;;;;;23.69;35.76;100815.28;5074071;28;19920;-71
2022/07/21 03:21:09;;;;;;;;;;;;;;;23.75;36.00;100816.97;5074038;28;19986;-71
2022/07/21 03:23:34;;;;;;;;;;;;;;;23.79;35.84;100818.06;5074044;28;20408;-71
2022/07/21 03:26:03;;;;;;;;;;;;;;;23.83;35.92;100817.56;5073336;28;19924;-71
2022/07/21 03:28:28;;;;;;;;;;;;;;;23.80;35.74;100810.69;5073984;28;19916;-71
2022/07/21 03:30:53;;;;;;;;;;;;;;;23.83;35.79;100817.56;5073700;28;19916;-72
2022/07/21 03:33:19;;;;;;;;;;;;;;;23.85;35.78;100812.66;5073457;28;19928;-72
2022/07/21 03:35:44;;;;;;;;;;;;;;;23.88;35.45;100812.16;5073535;28;20367;-72
2022/07/21 03:38:09;;;;;;;;;;;;;;;23.91;35.82;100811.63;5073843;28;19916;-72
2022/07/21 03:40:35;;;;;;;;;;;;;;;23.90;35.49;100809.97;5073759;28;20414;-72
2022/07/21 03:43:01;;;;;;;;;;;;;;;23.93;35.60;100814.91;5072458;28;19943;-72
2022/07/21 03:45:27;;;;;;;;;;;;;;;23.93;35.78;100810.25;5073613;28;19923;-72
2022/07/21 03:47:52;;;;;;;;;;;;;;;23.93;35.70;100814.91;5073461;28;19939;-72
2022/07/21 03:50:17;;;;;;;;;;;;;;;23.96;35.65;100815.19;5073695;28;19917;-72
2022/07/21 03:52:43;;;;;;;;;;;;;;;23.96;35.79;100808.91;5073604;28;20338;-72
2022/07/21 03:55:08;;;;;;;;;;;;;;;23.99;35.86;100824.72;5073301;28;20293;-72
2022/07/21 03:57:37;;;;;;;;;;;;;;;23.98;36.05;100823.09;5073608;28;19916;-72
2022/07/21 04:00:04;;;;;;;;;;;;;;;23.95;36.01;100824.44;5073270;28;19916;-72
2022/07/21 04:02:29;;;;;;;;;;;;;;;23.97;36.06;100824.19;5087753;28;20434;-72
2022/07/21 04:04:54;;;;;;;;;;;;;;;24.00;36.20;100826.38;5093679;28;19920;-72
2022/07/21 04:07:20;;;;;;;;;;;;;;;23.98;36.32;100823.09;5093636;28;20404;-72
2022/07/21 04:09:45;;;;;;;;;;;;;;;24.01;36.28;100833.50;5093707;28;19923;-72
2022/07/21 04:12:10;;;;;;;;;;;;;;;24.04;36.23;100824.75;5094215;28;19958;-72
2022/07/21 04:14:35;;;;;;;;;;;;;;;24.05;36.58;100825.59;5093281;28;19916;-72
2022/07/21 04:17:01;;;;;;;;;;;;;;;24.03;36.32;100819.59;5093636;28;19916;-72
2022/07/21 04:19:26;;;;;;;;;;;;;;;24.06;36.53;100824.50;5093587;28;19982;-72
2022/07/21 04:21:51;;;;;;;;;;;;;;;24.09;36.59;100824.78;5093308;28;20259;-73
2022/07/21 04:24:17;;;;;;;;;;;;;;;24.08;36.48;100833.25;5093319;28;19977;-73
2022/07/21 04:26:42;;;;;;;;;;;;;;;24.08;36.30;100831.34;5093125;28;20290;-73
2022/07/21 04:29:07;;;;;;;;;;;;;;;24.10;36.56;100837.34;5093206;28;19924;-73
2022/07/21 04:31:32;;;;;;;;;;;;;;;24.15;36.46;100834.63;5093219;28;19923;-73
2022/07/21 04:33:58;;;;;;;;;;;;;;;24.17;36.53;100837.91;5093188;28;19973;-73
2022/07/21 04:36:23;;;;;;;;;;;;;;;24.21;36.51;100831.94;5093671;28;20011;-73
2022/07/21 04:38:48;;;;;;;;;;;;;;;24.23;36.39;100846.13;5093454;28;19920;-73
2022/07/21 04:41:13;;;;;;;;;;;;;;;24.22;36.26;100839.03;5093338;28;20050;-73
2022/07/21 04:43:39;;;;;;;;;;;;;;;24.27;36.34;100839.06;5092150;28;20414;-73
2022/07/21 04:46:04;;;;;;;;;;;;;;;24.30;36.49;100841.22;5095818;28;19925;-73
2022/07/21 04:48:29;;;;;;;;;;;;;;;24.23;36.82;100827.81;5096738;28;20366;-73
2022/07/21 04:50:55;;;;;;;;;;;;;;;24.32;36.45;100833.59;5096903;28;19955;-73
2022/07/21 04:53:20;;;;;;;;;;;;;;;24.32;36.65;100830.88;5096661;28;20282;-73
2022/07/21 04:55:45;;;;;;;;;;;;;;;24.25;36.96;100833.00;5096767;28;19951;-73
2022/07/21 04:58:12;;;;;;;;;;;;;;;24.31;36.99;100834.69;5097564;28;20373;-72
2022/07/21 05:00:37;;;;;;;;;;;;;;;24.27;37.55;100836.31;5096471;28;19920;-73
2022/07/21 05:03:02;;;;;;;;;;;;;;;24.36;36.92;100829.25;5078110;28;19917;-73
2022/07/21 05:05:28;;;;;;;;;;;;;;;24.39;36.81;100839.63;5076101;28;19920;-73
2022/07/21 05:07:54;;;;;;;;;;;;;;;24.40;37.13;100830.34;5076400;28;19966;-73
2022/07/21 05:10:21;;;;;;;;;;;;;;;24.42;36.99;100830.06;5076295;28;19928;-73
2022/07/21 05:12:46;;;;;;;;;;;;;;;24.41;37.14;100826.53;5076238;28;19923;-72
2022/07/21 05:15:11;;;;;;;;;;;;;;;24.42;37.15;100822.69;5076223;28;19916;-72
2022/07/21 05:17:36;;;;;;;;;;;;;;;24.38;37.75;100824.31;5076112;28;19924;-73
2022/07/21 05:20:02;;;;;;;;;;;;;;;24.42;37.05;100832.78;5075791;28;19969;-73
2022/07/21 05:22:28;;;;;;;;;;;;;;;24.45;37.16;100826.81;5075755;28;20038;-73
2022/07/21 05:24:53;;;;;;;;;;;;;;;24.46;37.65;100823.81;5075451;28;19924;-73
2022/07/21 05:27:18;;;;;;;;;;;;;;;24.46;37.10;100814.78;5075777;28;20371;-73
2022/07/21 05:29:44;;;;;;;;;;;;;;;24.41;37.56;100825.72;5076150;28;19920;-73
2022/07/21 05:32:09;;;;;;;;;;;;;;;24.37;37.63;100830.91;5076153;28;20266;-73
2022/07/21 05:34:34;;;;;;;;;;;;;;;24.45;37.11;100827.59;5075699;28;20278;-73
2022/07/21 05:37:00;;;;;;;;;;;;;;;24.49;37.42;100833.34;5076005;28;19917;-73
2022/07/21 05:39:25;;;;;;;;;;;;;;;24.48;37.18;100829.81;5075478;28;19916;-73
2022/07/21 05:41:50;;;;;;;;;;;;;;;24.52;37.25;100833.63;5075171;28;19970;-73
2022/07/21 05:44:15;;;;;;;;;;;;;;;24.53;37.26;100824.34;5075499;28;19920;-73
2022/07/21 05:46:41;;;;;;;;;;;;;;;24.45;37.07;100822.16;5076051;28;19916;-73
2022/07/21 05:49:06;;;;;;;;;;;;;;;24.52;36.93;100822.69;5075357;28;20367;-73
2022/07/21 05:51:31;;;;;;;;;;;;;;;24.50;37.05;100818.63;5075414;28;19917;-73
2022/07/21 05:53:56;;;;;;;;;;;;;;;24.53;37.08;100818.91;5075703;28;19916;-72
2022/07/21 05:56:22;;;;;;;;;;;;;;;24.53;36.75;100816.16;5073860;28;19942;-73
2022/07/21 05:58:47;;;;;;;;;;;;;;;24.53;36.90;100818.91;5075762;28;19924;-73
2022/07/21 06:01:12;;;;;;;;;;;;;;;24.55;37.11;100824.94;5076786;28;19974;-72
2022/07/21 06:03:47;;;;;;;;;;;;;;;24.55;37.32;100821.38;5095064;28;19916;-72
2022/07/21 06:06:13;;;;;;;;;;;;;;;24.55;37.14;100822.19;5096064;28;20347;-73
2022/07/21 06:08:39;;;;;;;;;;;;;;;24.57;37.11;100818.38;5094097;28;19920;-73
2022/07/21 06:11:04;;;;;;;;;;;;;;;24.54;37.01;100820.56;5095532;28;19969;-73
2022/07/21 06:13:29;;;;;;;;;;;;;;;24.60;37.06;100812.38;5096524;28;19969;-73
2022/07/21 06:15:54;;;;;;;;;;;;;;;24.65;36.91;100809.66;5095114;28;19916;-73
2022/07/21 06:18:20;;;;;;;;;;;;;;;24.64;36.97;100808.00;5095177;28;19923;-73
2022/07/21 06:20:45;;;;;;;;;;;;;;;24.63;37.00;100811.81;5095413;28;20380;-73
2022/07/21 06:23:10;;;;;;;;;;;;;;;24.63;36.89;100820.03;5095376;28;20003;-73
2022/07/21 06:25:35;;;;;;;;;;;;;;;24.62;37.11;100810.19;5095964;28;20362;-73
2022/07/21 06:28:01;;;;;;;;;;;;;;;24.60;37.04;100812.38;5095031;28;19916;-73
2022/07/21 06:30:26;;;;;;;;;;;;;;;24.65;36.95;100817.88;5095164;28;20251;-73
2022/07/21 06:32:51;;;;;;;;;;;;;;;24.58;36.94;100820.00;5094782;28;19923;-73
2022/07/21 06:35:17;;;;;;;;;;;;;;;24.65;36.98;100812.41;5095248;28;20015;-73
2022/07/21 06:37:45;;;;;;;;;;;;;;;24.68;36.94;100812.66;5094697;28;19916;-73
2022/07/21 06:40:11;;;;;;;;;;;;;;;24.69;37.08;100814.28;5094861;28;19916;-73
2022/07/21 06:42:36;;;;;;;;;;;;;;;24.65;36.98;100809.66;5094470;28;19923;-74
2022/07/21 06:45:01;;;;;;;;;;;;;;;24.65;37.02;100812.41;5094777;28;20019;-73
2022/07/21 06:47:29;;;;;;;;;;;;;;;24.68;37.07;100809.09;5094791;28;19945;-73
2022/07/21 06:49:54;;;;;;;;;;;;;;;24.70;36.83;100812.41;5094666;28;19916;-73
2022/07/21 06:52:20;;;;;;;;;;;;;;;24.73;36.87;100811.84;5094527;28;20377;-73
2022/07/21 06:54:45;;;;;;;;;;;;;;;24.72;36.71;100808.28;5094171;28;20416;-73
2022/07/21 06:57:10;;;;;;;;;;;;;;;24.71;37.02;100814.03;5094686;28;19923;-74
2022/07/21 06:59:36;;;;;;;;;;;;;;;24.72;36.60;100811.03;5093264;28;19974;-73
2022/07/21 07:02:01;;;;;;;;;;;;;;;24.72;36.52;100807.47;5087094;28;19916;-73
2022/07/21 07:04:26;;;;;;;;;;;;;;;24.66;36.76;100805.81;5074531;28;20057;-74
2022/07/21 07:06:53;;;;;;;;;;;;;;;24.77;36.58;100806.63;5072163;28;20452;-73
2022/07/21 07:09:18;;;;;;;;;;;;;;;24.75;36.64;100804.22;5073943;28;19916;-73
2022/07/21 07:11:46;;;;;;;;;;;;;;;24.69;36.85;100799.81;5073790;28;20371;-73
2022/07/21 07:14:11;;;;;;;;;;;;;;;24.69;36.82;100806.09;5073639;28;20362;-73
2022/07/21 07:16:36;;;;;;;;;;;;;;;24.73;36.71;100800.91;5073617;28;19981;-72
2022/07/21 07:19:02;;;;;;;;;;;;;;;24.73;36.67;100798.16;5073636;28;19923;-71
2022/07/21 07:21:27;;;;;;;;;;;;;;;24.69;36.78;100803.34;5072537;28;19917;-71
2022/07/21 07:23:56;;;;;;;;;;;;;;;24.68;37.02;100800.91;5073214;28;20419;-72
2022/07/21 07:26:21;;;;;;;;;;;;;;;24.76;36.63;100791.34;5073525;28;19917;-71
2022/07/21 07:28:48;;;;;;;;;;;;;;;24.76;36.63;100794.91;5073492;28;20371;-72
2022/07/21 07:31:13;;;;;;;;;;;;;;;24.78;36.57;100791.91;5073481;28;19920;-72
2022/07/21 07:33:39;;;;;;;;;;;;;;;24.70;36.73;100796.00;5073457;28;20443;-72
2022/07/21 07:36:04;;;;;;;;;;;;;;;24.65;36.62;100787.81;5074196;28;19963;-72
2022/07/21 07:38:29;;;;;;;;;;;;;;;24.66;36.69;100792.16;5073563;28;20432;-72
2022/07/21 07:40:54;;;;;;;;;;;;;;;24.61;36.88;100793.00;5073330;28;19920;-72
2022/07/21 07:43:20;;;;;;;;;;;;;;;24.68;36.59;100792.69;5074428;28;19920;-72
2022/07/21 07:45:45;;;;;;;;;;;;;;;24.71;36.67;100792.97;5073317;28;20386;-73
2022/07/21 07:48:10;;;;;;;;;;;;;;;24.76;36.39;100788.63;5073523;28;19924;-73
2022/07/21 07:50:36;;;;;;;;;;;;;;;24.77;36.33;100791.09;5073928;28;19916;-72
2022/07/21 07:53:01;;;;;;;;;;;;;;;24.79;36.53;100791.63;5073649;28;20359;-73
2022/07/21 07:55:26;;;;;;;;;;;;;;;24.82;36.22;100793.81;5075526;28;19923;-72
2022/07/21 07:57:51;;;;;;;;;;;;;;;24.79;36.44;100786.16;5072306;28;19917;-72
2022/07/21 08:00:17;;;;;;;;;;;;;;;24.82;36.17;100793.81;5073133;28;20386;-72
2022/07/21 08:02:42;;;;;;;;;;;;;;;24.83;36.01;100784.50;5084966;28;19916;-72
2022/07/21 08:05:10;;;;;;;;;;;;;;;24.77;35.90;100782.88;5093574;28;19916;-72
2022/07/21 08:07:37;;;;;;;;;;;;;;;24.83;35.83;100780.97;5093830;28;19926;-73
2022/07/21 08:10:03;;;;;;;;;;;;;;;24.82;35.95;100777.41;5093645;28;19977;-73
2022/07/21 08:12:28;;;;;;;;;;;;;;;24.83;35.98;100772.75;5093677;28;20378;-72
2022/07/21 08:14:54;;;;;;;;;;;;;;;24.84;35.77;100774.41;5093868;28;20270;-72
2022/07/21 08:17:19;;;;;;;;;;;;;;;24.86;35.96;100778.50;5094555;28;20292;-72
2022/07/21 08:19:44;;;;;;;;;;;;;;;24.87;35.76;100774.69;5096448;28;19920;-72
2022/07/21 08:22:12;;;;;;;;;;;;;;;24.86;35.61;100764.84;5097154;28;20255;-72
2022/07/21 08:24:38;;;;;;;;;;;;;;;24.80;35.80;100779.59;5097171;28;19927;-72
2022/07/21 08:27:03;;;;;;;;;;;;;;;24.81;35.82;100767.56;5097410;28;19920;-72
2022/07/21 08:29:28;;;;;;;;;;;;;;;24.83;35.86;100764.56;5097496;28;20286;-73
2022/07/21 08:31:53;;;;;;;;;;;;;;;24.80;35.82;100765.09;5100529;28;19916;-73
2022/07/21 08:34:19;;;;;;;;;;;;;;;24.85;35.51;100759.63;5096692;28;19963;-72
2022/07/21 08:36:44;;;;;;;;;;;;;;;24.89;35.46;100764.28;5097740;28;19974;-72
2022/07/21 08:39:09;;;;;;;;;;;;;;;24.88;35.68;100759.91;5096999;28;20293;-72
2022/07/21 08:41:35;;;;;;;;;;;;;;;24.90;35.54;100760.44;5096876;28;20341;-73
2022/07/21 08:44:00;;;;;;;;;;;;;;;24.93;35.54;100762.63;5096768;28;19916;-72
2022/07/21 08:46:25;;;;;;;;;;;;;;;24.95;35.38;100759.63;5096964;28;20270;-72
2022/07/21 08:48:51;;;;;;;;;;;;;;;24.90;35.49;100762.38;5096559;28;19920;-72
2022/07/21 08:51:16;;;;;;;;;;;;;;;24.86;35.49;100755.81;5096754;28;19955;-72
2022/07/21 08:53:45;;;;;;;;;;;;;;;24.90;35.71;100756.91;5096696;28;19916;-73
2022/07/21 08:56:10;;;;;;;;;;;;;;;24.90;35.64;100752.25;5096683;28;19939;-72
2022/07/21 08:58:36;;;;;;;;;;;;;;;24.86;35.78;100751.16;5096749;28;20351;-72
2022/07/21 09:01:02;;;;;;;;;;;;;;;24.87;35.69;100746.50;5096292;28;19923;-72
2022/07/21 09:03:29;;;;;;;;;;;;;;;24.89;35.58;100753.34;5079011;28;19917;-72
2022/07/21 09:05:58;;;;;;;;;;;;;;;24.86;35.78;100745.69;5075994;28;20370;-72
2022/07/21 09:08:34;;;;;;;;;;;;;;;24.92;35.73;100755.53;5076320;28;19922;-72
2022/07/21 09:11:09;;;;;;;;;;;;;;;24.90;35.61;100749.50;5075962;28;19928;-72
2022/07/21 09:13:35;;;;;;;;;;;;;;;24.70;35.85;100741.34;5075893;28;19920;-72
2022/07/21 09:16:00;;;;;;;;;;;;;;;24.68;35.99;100740.78;5075996;28;19917;-72
2022/07/21 09:18:25;;;;;;;;;;;;;;;24.61;36.15;100740.22;5074887;28;19943;-72
2022/07/21 09:20:51;;;;;;;;;;;;;;;24.60;36.28;100739.44;5076139;28;20286;-72
2022/07/21 09:23:17;;;;;;;;;;;;;;;24.64;36.16;100743.25;5075975;28;20373;-72
2022/07/21 09:25:43;;;;;;;;;;;;;;;24.64;36.46;100747.91;5073899;28;20359;-72
2022/07/21 09:28:12;;;;;;;;;;;;;;;24.66;35.98;100742.97;5075708;28;19963;-72
2022/07/21 09:30:47;;;;;;;;;;;;;;;24.69;35.97;100735.03;5075002;28;20022;-72
2022/07/21 09:33:24;;;;;;;;;;;;;;;24.67;36.12;100742.69;5075800;28;19939;-72
2022/07/21 09:35:52;;;;;;;;;;;;;;;24.67;36.12;100731.78;5075418;28;19922;-72
2022/07/21 09:38:18;;;;;;;;;;;;;;;24.70;36.01;100733.16;5075663;28;19930;-72
2022/07/21 09:40:46;;;;;;;;;;;;;;;24.67;36.14;100725.50;5075492;28;20392;-72
2022/07/21 09:43:12;;;;;;;;;;;;;;;24.66;36.03;100730.13;5076098;28;19969;-72
2022/07/21 09:45:37;;;;;;;;;;;;;;;24.87;35.72;100728.22;5075667;28;20325;-72
2022/07/21 09:48:02;;;;;;;;;;;;;;;24.86;35.75;100726.56;5075306;28;19916;-72
2022/07/21 09:50:28;;;;;;;;;;;;;;;24.84;35.92;100722.47;5075608;28;20042;-71
2022/07/21 09:52:54;;;;;;;;;;;;;;;24.92;35.73;100722.75;5075101;28;20279;-72
2022/07/21 09:55:19;;;;;;;;;;;;;;;25.05;35.56;100717.78;5075100;28;19948;-72
2022/07/21 09:57:44;;;;;;;;;;;;;;;24.91;36.00;100714.81;5075409;28;20013;-72
2022/07/21 10:00:12;;;;;;;;;;;;;;;24.93;35.82;100713.44;5074952;28;20293;-73
2022/07/21 10:02:37;;;;;;;;;;;;;;;25.10;35.58;100715.03;5084259;28;20328;-72
2022/07/21 10:05:03;;;;;;;;;;;;;;;25.03;35.75;100715.34;5095404;28;19916;-72
2022/07/21 10:07:29;;;;;;;;;;;;;;;24.88;35.99;100710.69;5095371;28;19916;-72
2022/07/21 10:09:54;;;;;;;;;;;;;;;24.82;36.21;100705.50;5095404;28;19985;-72
2022/07/21 10:12:20;;;;;;;;;;;;;;;25.06;35.87;100703.84;5095404;28;19916;-72
2022/07/21 10:14:46;;;;;;;;;;;;;;;24.93;36.07;100702.50;5095130;28;19920;-72
2022/07/21 10:17:12;;;;;;;;;;;;;;;24.99;36.31;100705.22;5093697;28;19924;-71
2022/07/21 10:19:42;;;;;;;;;;;;;;;24.90;36.35;100703.03;5095472;28;19917;-71
2022/07/21 10:22:40;;;;;;;;;;;;;;;24.88;36.17;100699.75;5093530;28;20350;-72
2022/07/21 10:25:05;;;;;;;;;;;;;;;24.85;36.35;100705.81;5052395;28;19928;-71
2022/07/21 10:27:31;;;;;;;;;;;;;;;24.97;36.28;100699.22;5052382;28;19921;-72
2022/07/21 10:29:58;;;;;;;;;;;;;;;25.00;36.10;100695.94;5052202;28;19948;-72
2022/07/21 10:32:43;;;;;;;;;;;;;;;25.07;36.01;100701.91;5052104;28;19993;-72
2022/07/21 10:35:24;;;;;;;;;;;;;;;24.90;36.64;100703.03;5045234;28;19924;-72
2022/07/21 10:37:50;;;;;;;;;;;;;;;24.91;36.71;100696.47;5052082;28;19920;-71
2022/07/21 10:40:18;;;;;;;;;;;;;;;24.91;36.57;100699.22;5051936;28;20402;-71
2022/07/21 10:42:43;;;;;;;;;;;;;;;24.92;36.64;100695.41;5051160;28;19927;-72
2022/07/21 10:45:27;;;;;;;;;;;;;;;24.92;36.60;100695.41;5052001;28;20000;-71
2022/07/21 10:47:52;;;;;;;;;;;;;;;25.04;36.51;100691.53;5051923;28;19971;-72
2022/07/21 10:50:28;;;;;;;;;;;;;;;24.88;36.86;100691.56;5051988;28;19917;-72
2022/07/21 10:52:58;;;;;;;;;;;;;;;24.93;36.77;100694.28;5051814;28;20367;-72
2022/07/21 10:55:25;;;;;;;;;;;;;;;24.90;37.04;100691.28;5052074;28;19917;-71
2022/07/21 10:58:09;;;;;;;;;;;;;;;25.03;36.73;100692.66;5051857;28;19916;-72
2022/07/21 11:00:36;;;;;;;;;;;;;;;25.07;36.80;100690.97;5074533;28;20025;-74
2022/07/21 11:03:02;;;;;;;;;;;;;;;25.03;36.59;100689.91;5083670;28;19917;-73
2022/07/21 11:05:28;;;;;;;;;;;;;;;24.93;36.87;100697.03;5073782;28;19970;-73
2022/07/21 11:08:12;;;;;;;;;;;;;;;24.91;37.05;100682.81;5074704;28;19916;-72
2022/07/21 11:10:38;;;;;;;;;;;;;;;24.88;36.76;100677.09;5074215;28;19916;-72
2022/07/21 11:13:03;;;;;;;;;;;;;;;24.81;37.24;100677.38;5072157;28;20319;-72
2022/07/21 11:15:44;;;;;;;;;;;;;;;24.92;36.98;100668.06;5073999;28;19940;-72
2022/07/21 11:18:10;;;;;;;;;;;;;;;24.98;36.67;100676.25;5073962;28;19958;-72
2022/07/21 11:20:35;;;;;;;;;;;;;;;24.86;36.93;100662.88;5072585;28;20294;-72
2022/07/21 11:23:03;;;;;;;;;;;;;;;24.90;36.99;100670.22;5072621;28;19916;-72
2022/07/21 11:25:33;;;;;;;;;;;;;;;24.87;37.17;100664.50;5073437;28;20075;-72
2022/07/21 11:27:59;;;;;;;;;;;;;;;24.98;36.86;100660.66;5073752;28;19921;-72
2022/07/21 11:30:24;;;;;;;;;;;;;;;24.88;36.92;100672.44;5073922;28;19916;-73
2022/07/21 11:32:49;;;;;;;;;;;;;;;24.96;36.95;100662.84;5073920;28;20374;-73
2022/07/21 11:35:14;;;;;;;;;;;;;;;25.05;36.89;100665.84;5073825;28;20327;-73
2022/07/21 11:37:41;;;;;;;;;;;;;;;25.12;36.60;100663.63;5073352;28;19916;-72
2022/07/21 11:40:12;;;;;;;;;;;;;;;25.04;36.91;100664.19;5073506;28;20355;-73
2022/07/21 11:42:37;;;;;;;;;;;;;;;25.07;36.81;100663.63;5073613;28;19951;-73
2022/07/21 11:45:06;;;;;;;;;;;;;;;25.21;36.60;100664.69;5073890;28;19962;-73
2022/07/21 11:47:31;;;;;;;;;;;;;;;25.19;36.46;100666.06;5073606;28;19923;-73
2022/07/21 11:49:57;;;;;;;;;;;;;;;25.17;36.70;100669.06;5073679;28;20014;-73
2022/07/21 11:52:29;;;;;;;;;;;;;;;25.21;36.77;100656.47;5073652;28;19928;-73
2022/07/21 11:54:55;;;;;;;;;;;;;;;25.21;36.82;100670.16;5076344;28;19922;-73
2022/07/21 11:57:21;;;;;;;;;;;;;;;25.20;36.74;100657.59;5077227;28;20378;-73
2022/07/21 11:59:46;;;;;;;;;;;;;;;25.20;36.60;100665.78;5077828;28;19916;-73
2022/07/21 12:02:18;;;;;;;;;;;;;;;25.20;36.56;100663.06;5081244;28;19916;-73
2022/07/21 12:04:45;;;;;;;;;;;;;;;25.17;36.78;100660.88;5097523;28;19917;-73
2022/07/21 12:07:12;;;;;;;;;;;;;;;25.12;36.99;100660.88;5097749;28;19980;-73
2022/07/21 12:09:37;;;;;;;;;;;;;;;25.26;36.73;100659.22;5097902;28;19944;-73
2022/07/21 12:12:02;;;;;;;;;;;;;;;25.18;36.88;100658.94;5098402;28;20389;-73
2022/07/21 12:14:40;;;;;;;;;;;;;;;25.16;36.90;100656.50;5097794;28;20213;-73
2022/07/21 12:17:05;;;;;;;;;;;;;;;25.24;36.87;100655.91;5097530;28;19916;-72
2022/07/21 12:19:31;;;;;;;;;;;;;;;25.23;37.00;100654.31;5096550;28;19916;-72
2022/07/21 12:21:56;;;;;;;;;;;;;;;25.19;37.17;100657.88;5096811;28;20354;-72
2022/07/21 12:24:21;;;;;;;;;;;;;;;25.25;37.10;100654.00;5097448;28;20398;-72
2022/07/21 12:26:47;;;;;;;;;;;;;;;25.24;37.17;100650.44;5097797;28;19920;-72
2022/07/21 12:29:25;;;;;;;;;;;;;;;25.37;36.92;100645.50;5098729;28;20346;-72
2022/07/21 12:31:50;;;;;;;;;;;;;;;25.36;36.83;100652.09;5097740;28;19916;-72
2022/07/21 12:34:18;;;;;;;;;;;;;;;25.35;37.05;100644.97;5097582;28;19916;-72